Terminal Aerodrome Forecast
Issued by NWS Sterling, VA

Current Version | Previous Version | Text Only | Print | Product List | Glossary Off
Versions: 1 2 3 4 5 6 7 8 9 10 11 12 13 14 15 16 17

000
FTUS41 KLWX 011700 AAA
TAFMRB
TAF AMD
KMRB 011706Z 0117/0212 23004KT P6SM -SHRA BKN050
     FM011800 24006KT P6SM VCTS BKN050CB
     FM012100 26004KT P6SM BKN050
     FM020200 VRB03KT P6SM SCT050=

USA.gov is the U.S. government's official web portal to all federal, state and local government web resources and services.